createdAt,value
2023-02-13T00:05:56.918Z,999.27
2023-02-13T00:17:57.341Z,999.29
2023-02-13T00:29:57.824Z,999.38
2023-02-13T00:41:58.255Z,999.47
2023-02-13T00:53:58.684Z,999.49
2023-02-13T01:05:59.140Z,999.40
2023-02-13T01:17:59.598Z,999.40
2023-02-13T01:30:00.002Z,999.32
2023-02-13T01:42:00.514Z,999.38
2023-02-13T01:54:00.926Z,999.35
2023-02-13T02:06:01.396Z,999.20
2023-02-13T02:18:01.891Z,999.13
2023-02-13T02:30:02.312Z,999.10
2023-02-13T02:42:02.767Z,999.01
2023-02-13T02:54:03.183Z,999.10
2023-02-13T03:06:03.672Z,999.10
2023-02-13T03:18:04.119Z,999.12
2023-02-13T03:30:04.582Z,999.15
2023-02-13T03:42:05.042Z,999.08
2023-02-13T03:54:05.456Z,999.23
2023-02-13T04:06:05.913Z,999.10
2023-02-13T04:18:06.360Z,999.15
2023-02-13T04:30:06.798Z,999.06
2023-02-13T04:42:07.254Z,999.09
2023-02-13T04:54:07.684Z,999.01
2023-02-13T05:06:08.178Z,998.92
2023-02-13T05:18:08.665Z,998.90
2023-02-13T05:30:09.081Z,998.80
2023-02-13T05:42:09.565Z,998.82
2023-02-13T05:54:09.998Z,998.85
2023-02-13T06:06:10.458Z,998.96
2023-02-13T06:18:10.882Z,999.07
2023-02-13T06:30:11.329Z,999.26
2023-02-13T06:42:11.760Z,999.36
2023-02-13T06:54:12.204Z,999.26
2023-02-13T07:06:12.653Z,999.33
2023-02-13T07:18:13.143Z,999.36
2023-02-13T07:30:13.569Z,999.39
2023-02-13T07:42:14.021Z,999.44
2023-02-13T07:54:14.501Z,999.44
2023-02-13T08:06:14.955Z,999.44
2023-02-13T08:18:15.655Z,999.34
2023-02-13T08:30:15.864Z,999.48
2023-02-13T08:42:16.499Z,999.30
2023-02-13T08:54:16.703Z,999.23
2023-02-13T09:06:17.180Z,999.22
2023-02-13T09:18:17.671Z,999.13
2023-02-13T09:30:18.110Z,999.14
2023-02-13T09:42:18.563Z,999.14
2023-02-13T09:54:19.029Z,999.26
2023-02-13T10:06:19.446Z,999.23
2023-02-13T10:18:19.911Z,999.17
2023-02-13T10:30:20.342Z,999.08
2023-02-13T10:42:20.795Z,998.98
2023-02-13T10:54:21.297Z,998.97
2023-02-13T11:06:21.734Z,998.91
2023-02-13T11:18:22.146Z,998.84
2023-02-13T11:30:22.599Z,998.74
2023-02-13T11:42:23.098Z,998.70
2023-02-13T11:54:23.526Z,998.60
2023-02-13T12:06:23.954Z,998.61
2023-02-13T12:18:24.443Z,998.38
2023-02-13T12:30:24.945Z,998.22
2023-02-13T12:42:25.358Z,998.09
2023-02-13T12:54:25.783Z,998.09
2023-02-13T13:06:26.305Z,998.02
2023-02-13T13:18:26.730Z,998.02
2023-02-13T13:30:27.296Z,997.95
2023-02-13T13:42:27.576Z,997.99
2023-02-13T13:54:28.049Z,998.04
2023-02-13T14:06:28.551Z,997.98
2023-02-13T14:18:28.990Z,997.98
2023-02-13T14:30:29.439Z,997.92
2023-02-13T14:42:29.866Z,997.88
2023-02-13T14:54:30.371Z,997.91
2023-02-13T15:06:30.828Z,997.75
2023-02-13T15:18:31.283Z,997.80
2023-02-13T15:30:31.745Z,997.84
2023-02-13T15:42:32.104Z,997.89
2023-02-13T15:54:33.066Z,997.72
2023-02-13T16:06:33.013Z,997.75
2023-02-13T16:18:33.560Z,997.92
2023-02-13T16:30:34.167Z,997.97
2023-02-13T16:42:34.482Z,998.04
2023-02-13T16:54:34.854Z,998.08
2023-02-13T17:06:35.307Z,998.01
2023-02-13T17:18:35.791Z,998.09
2023-02-13T17:30:36.253Z,998.18
2023-02-13T17:42:36.707Z,997.98
2023-02-13T17:54:37.123Z,998.00
2023-02-13T18:06:37.597Z,997.89
2023-02-13T18:18:37.999Z,997.82
2023-02-13T18:30:38.453Z,997.79
2023-02-13T18:42:38.944Z,997.89
2023-02-13T18:54:39.357Z,997.84
2023-02-13T19:06:39.840Z,997.54
2023-02-13T19:18:40.260Z,997.63
2023-02-13T19:30:40.685Z,997.75
2023-02-13T19:42:41.198Z,997.64
2023-02-13T19:54:41.606Z,997.60
2023-02-13T20:06:42.083Z,997.56
2023-02-13T20:18:42.513Z,997.67
2023-02-13T20:30:43.128Z,997.48
2023-02-13T20:42:43.456Z,997.57
2023-02-13T20:54:43.896Z,997.57
2023-02-13T21:06:44.351Z,997.51
2023-02-13T21:18:44.797Z,997.62
2023-02-13T21:30:45.340Z,997.50
2023-02-13T21:42:45.660Z,997.55
2023-02-13T21:54:46.157Z,997.34
2023-02-13T22:06:46.636Z,997.40
2023-02-13T22:18:47.036Z,997.51
2023-02-13T22:30:47.615Z,997.47
2023-02-13T22:42:47.946Z,997.77
2023-02-13T22:54:48.431Z,997.79
2023-02-13T23:06:48.857Z,997.76
2023-02-13T23:18:49.281Z,997.78
2023-02-13T23:30:49.775Z,997.77
2023-02-13T23:42:50.190Z,997.86
2023-02-13T23:54:50.658Z,997.92
